Terminal Aerodrome Forecast
Issued by NWS

Home | Current Version | Previous Version | Text Only | Print | Product List | Glossary On
Versions: 1 2 3 4 5 6 7 8 9 10 11 12 13 14
000
FTPA31 PHFO 242340
TAFHOG
TAF
PHOG 242340Z 2500/2524 05012G18KT P6SM VCSH FEW025 SCT045
     FM250400 05008KT P6SM VCSH FEW030 SCT045
     FM252000 04018G26KT P6SM FEW030 SCT060=

USA.gov is the U.S. government's official web portal to all federal, state and local government web resources and services.